Timber Mountain, Nevada Weather observations

Data are for 10 minute period ending at time listed.
 Day   Time   Solar   Ave.   Ave.  Ave.  Vector  Max.   Baro.   Total    
  of    of     Rad.   Air    Rel.  Wind   Wind   Wind  Press.  Precip.   
Year   Day            Temp.  Hum.  Speed  Dir.   Gust                    
2015   (PST)  Kw/m2    F      %     mph   deg.    mph    mb.     in.     
-------------------------------------------------------------------------
 185    0:00   0.00   71.0    16    1.9    87     3.7   812.1    0.00 
 185    1:00   0.00   70.1    17    2.1   100     4.8   811.8    0.00 
 185    2:00   0.00   71.1    16    2.6    25     5.6   811.7    0.00 
 185    3:00   0.00   70.7    15    2.3    20     5.7   811.9    0.00 
 185    4:00   0.00   66.0    37    6.7   119    12.5   812.4    0.00 
 185    5:00   0.00   66.5    35    3.2   101     6.3   812.4    0.00 
 185    6:00   0.04   70.0    28    2.1   356     5.3   812.4    0.00 
 185    7:00   0.08   74.1    22    2.7   221     8.0   812.8    0.00 
 185    8:00   0.10   74.6    20    4.5   132    11.6   813.4    0.00 
 185    9:00   0.16   73.9    22    7.6   167    17.7   813.9    0.00 
 185   10:00   0.16   73.4    24    5.1   197    16.0   814.0    0.00 
 185   11:00   0.19   74.4    24    5.2   282    11.1   814.3    0.00 
 185   12:00   0.29   74.2    27    5.5     8    11.2   814.2    0.00 
 185   13:00   0.92   80.5    22    5.7   314    15.8   814.0    0.00 
 185   14:00   0.97   80.9    22    6.2   143    29.1   813.7    0.00 
 185   15:00   0.69   81.8    20    5.4   320    17.5   813.0    0.00 
 185   16:00   0.71   83.5    18    8.7   300    18.4   812.5    0.00 
 185   17:00   0.49   83.2    18    8.2   289    19.4   812.1    0.00 
 185   18:00   0.28   82.3    20    8.2   279    16.5   812.0    0.00 
 185   19:00   0.04   76.6    27    8.7   323    18.9   812.3    0.00 
 185   20:00   0.00   71.7    37   10.2    19    19.7   812.3    0.00 
 185   21:00   0.00   69.3    41   11.2    12    23.8   812.8    0.00 
 185   22:00   0.00   67.3    44   10.6   359    23.7   813.5    0.00 

Return to Timber Mountain graphs page.


Western Regional Climate Center,wrcc@dri.edu